createdAt,value
2022-12-28T00:01:45.448Z,99242.27
2022-12-28T00:04:14.932Z,99240.77
2022-12-28T00:06:41.373Z,99244.23
2022-12-28T00:09:11.054Z,99242.71
2022-12-28T00:11:38.202Z,99234.86
2022-12-28T00:14:05.009Z,99237.77
2022-12-28T00:16:34.390Z,99235.90
2022-12-28T00:19:03.607Z,99238.47
2022-12-28T00:21:31.222Z,99238.48
2022-12-28T00:23:59.536Z,99239.50
2022-12-28T00:26:28.840Z,99238.98
2022-12-28T00:29:01.667Z,99241.54
2022-12-28T00:31:31.141Z,99236.72
2022-12-28T00:33:57.755Z,99234.14
2022-12-28T00:36:24.468Z,99233.77
2022-12-28T00:39:11.029Z,99227.09
2022-12-28T00:41:37.534Z,99227.40
2022-12-28T00:44:04.080Z,99231.66
2022-12-28T00:46:30.539Z,99229.23
2022-12-28T00:49:00.584Z,99230.27
2022-12-28T00:51:26.995Z,99228.69
2022-12-28T00:53:53.516Z,99224.23
2022-12-28T00:56:22.202Z,99223.90
2022-12-28T00:58:49.157Z,99229.54
2022-12-28T01:01:21.840Z,99229.55
2022-12-28T01:03:48.795Z,99229.72
2022-12-28T01:06:17.696Z,99228.70
2022-12-28T01:08:44.847Z,99229.89
2022-12-28T01:11:16.183Z,99224.27
2022-12-28T01:13:42.667Z,99227.54
2022-12-28T01:16:14.027Z,99229.11
2022-12-28T01:18:40.979Z,99234.95
2022-12-28T01:21:13.101Z,99236.02
2022-12-28T01:23:39.614Z,99236.23
2022-12-28T01:26:06.605Z,99240.36
2022-12-28T01:28:33.655Z,99240.56
2022-12-28T01:31:09.413Z,99241.27
2022-12-28T01:33:35.959Z,99241.98
2022-12-28T01:36:09.869Z,99237.04
2022-12-28T01:38:36.922Z,99237.73
2022-12-28T01:41:07.484Z,99237.41
2022-12-28T01:43:47.234Z,99238.11
2022-12-28T01:46:20.477Z,99238.13
2022-12-28T01:49:19.160Z,99241.05
2022-12-28T01:52:00.579Z,99238.52
2022-12-28T01:54:31.787Z,99236.15
2022-12-28T01:56:58.744Z,99236.18
2022-12-28T01:59:31.412Z,99235.33
2022-12-28T02:01:58.389Z,99232.08
2022-12-28T02:04:26.919Z,99233.62
2022-12-28T02:06:55.600Z,99227.64
2022-12-28T02:09:29.795Z,99225.41
2022-12-28T02:11:57.025Z,99220.64
2022-12-28T02:14:23.871Z,99219.08
2022-12-28T02:16:50.615Z,99218.73
2022-12-28T02:19:25.821Z,99221.77
2022-12-28T02:22:18.465Z,99226.34
2022-12-28T02:25:12.020Z,99221.03
2022-12-28T02:27:46.164Z,99223.06
2022-12-28T02:30:14.232Z,99226.30
2022-12-28T02:32:54.205Z,99224.73
2022-12-28T02:35:39.090Z,99227.44
2022-12-28T02:38:30.464Z,99230.30
2022-12-28T02:41:06.015Z,99230.59
2022-12-28T02:43:34.028Z,99234.81
2022-12-28T02:46:11.851Z,99233.25
2022-12-28T02:48:42.966Z,99234.24
2022-12-28T02:51:28.289Z,99228.26
2022-12-28T02:54:14.646Z,99231.14
2022-12-28T02:56:53.383Z,99227.73
2022-12-28T02:59:30.971Z,99224.16
2022-12-28T03:02:27.491Z,99223.64
2022-12-28T03:05:09.316Z,99223.77
2022-12-28T03:07:41.905Z,99222.94
2022-12-28T03:10:14.384Z,99228.21
2022-12-28T03:13:05.328Z,99226.83
2022-12-28T03:15:37.319Z,99216.59
2022-12-28T03:18:15.072Z,99215.58
2022-12-28T03:20:41.566Z,99215.40
2022-12-28T03:23:11.324Z,99211.00
2022-12-28T03:25:42.177Z,99215.25
2022-12-28T03:28:13.390Z,99216.77
2022-12-28T03:30:42.691Z,99213.85
2022-12-28T03:33:11.415Z,99215.69
2022-12-28T03:35:42.763Z,99204.58
2022-12-28T03:38:18.826Z,99198.08
2022-12-28T03:40:51.675Z,99191.09
2022-12-28T03:43:25.608Z,99188.00
2022-12-28T03:46:00.505Z,99179.83
2022-12-28T03:48:27.446Z,99174.73
2022-12-28T03:50:55.085Z,99173.36
2022-12-28T03:53:29.020Z,99171.48
2022-12-28T03:56:10.806Z,99169.79
2022-12-28T03:58:37.345Z,99177.24
2022-12-28T04:01:04.629Z,99177.88
2022-12-28T04:03:31.305Z,99181.41
2022-12-28T04:05:59.839Z,99181.85
2022-12-28T04:08:27.192Z,99177.20
2022-12-28T04:10:54.129Z,99175.09
2022-12-28T04:13:20.686Z,99173.02
2022-12-28T04:15:58.333Z,99174.17
2022-12-28T04:18:25.159Z,99183.64
2022-12-28T04:20:51.889Z,99182.94
2022-12-28T04:23:18.538Z,99183.23
2022-12-28T04:25:45.270Z,99182.55
2022-12-28T04:28:11.809Z,99187.30
2022-12-28T04:30:38.404Z,99182.89
2022-12-28T04:33:04.993Z,99184.11
2022-12-28T04:35:32.555Z,99184.84
2022-12-28T04:37:59.100Z,99183.65
2022-12-28T04:40:25.578Z,99177.38
2022-12-28T04:42:52.075Z,99179.09
2022-12-28T04:45:22.150Z,99177.70
2022-12-28T04:47:48.905Z,99169.86
2022-12-28T04:50:15.487Z,99165.63
2022-12-28T04:52:43.248Z,99168.34
2022-12-28T04:55:32.470Z,99165.98
2022-12-28T04:57:56.407Z,99170.04
2022-12-28T05:00:23.211Z,99170.20
2022-12-28T05:02:49.908Z,99165.13
2022-12-28T05:05:16.656Z,99167.16
2022-12-28T05:07:43.181Z,99169.04
2022-12-28T05:10:09.814Z,99166.83
2022-12-28T05:12:36.267Z,99166.46
2022-12-28T05:15:02.794Z,99160.51
2022-12-28T05:17:29.328Z,99153.85
2022-12-28T05:19:55.769Z,99155.38
2022-12-28T05:22:22.293Z,99156.73
2022-12-28T05:24:48.851Z,99162.64
2022-12-28T05:27:15.286Z,99163.79
2022-12-28T05:29:41.835Z,99163.91
2022-12-28T05:32:08.701Z,99158.77
2022-12-28T05:34:35.105Z,99154.67
2022-12-28T05:37:01.510Z,99146.71
2022-12-28T05:39:28.096Z,99137.04
2022-12-28T05:41:54.567Z,99140.78
2022-12-28T05:44:21.043Z,99139.13
2022-12-28T05:46:47.569Z,99145.98
2022-12-28T05:49:14.157Z,99151.14
2022-12-28T05:51:40.591Z,99148.96
2022-12-28T05:54:07.004Z,99152.38
2022-12-28T05:56:33.940Z,99144.70
2022-12-28T05:59:06.383Z,99146.56
2022-12-28T06:01:36.632Z,99149.93
2022-12-28T06:04:06.036Z,99147.52
2022-12-28T06:06:34.218Z,99149.24
2022-12-28T06:09:00.827Z,99148.37
2022-12-28T06:11:29.299Z,99144.80
2022-12-28T06:13:56.297Z,99143.42
2022-12-28T06:16:28.917Z,99148.82
2022-12-28T06:18:56.013Z,99144.70
2022-12-28T06:21:31.218Z,99142.98
2022-12-28T06:23:59.391Z,99143.29
2022-12-28T06:26:28.485Z,99145.61
2022-12-28T06:28:55.253Z,99145.23
2022-12-28T06:31:27.261Z,99146.86
2022-12-28T06:33:55.507Z,99141.90
2022-12-28T06:36:24.788Z,99137.48
2022-12-28T06:38:53.737Z,99135.13
2022-12-28T06:41:22.274Z,99133.24
2022-12-28T06:43:49.835Z,99127.61
2022-12-28T06:46:18.109Z,99123.16
2022-12-28T06:48:44.671Z,99122.66
2022-12-28T06:51:24.206Z,99121.86
2022-12-28T06:53:52.218Z,99116.81
2022-12-28T06:56:24.977Z,99115.02
2022-12-28T06:58:57.015Z,99113.79
2022-12-28T07:01:40.638Z,99110.39
2022-12-28T07:04:09.774Z,99115.22
2022-12-28T07:06:44.131Z,99114.73
2022-12-28T07:09:14.194Z,99113.23
2022-12-28T07:11:41.273Z,99111.44
2022-12-28T07:14:08.107Z,99114.91
2022-12-28T07:19:01.036Z,99108.54
2022-12-28T07:21:32.710Z,99105.02
2022-12-28T07:23:59.430Z,99100.64
2022-12-28T07:26:28.523Z,99096.06
2022-12-28T07:28:57.248Z,99088.27
2022-12-28T07:31:27.807Z,99076.36
2022-12-28T07:33:58.278Z,99078.27
2022-12-28T07:36:26.767Z,99076.91
2022-12-28T07:38:53.591Z,99076.60
2022-12-28T07:41:22.890Z,99074.20
2022-12-28T07:43:50.175Z,99070.64
2022-12-28T07:46:21.140Z,99067.06
2022-12-28T07:48:48.480Z,99064.85
2022-12-28T07:51:36.681Z,99053.94
2022-12-28T07:54:04.618Z,99052.05
2022-12-28T07:59:01.759Z,99057.00
2022-12-28T08:01:30.411Z,99058.71
2022-12-28T08:04:00.747Z,99058.70
2022-12-28T08:06:28.477Z,99058.16
2022-12-28T08:08:58.535Z,99056.27
2022-12-28T08:11:27.937Z,99055.69
2022-12-28T08:13:56.069Z,99058.90
2022-12-28T08:16:25.046Z,99051.86
2022-12-28T08:18:51.704Z,99054.70
2022-12-28T08:21:21.413Z,99055.48
2022-12-28T08:23:48.833Z,99057.13
2022-12-28T08:26:29.819Z,99051.10
2022-12-28T08:28:59.048Z,99052.91
2022-12-28T08:31:28.225Z,99050.46
2022-12-28T08:33:56.338Z,99051.09
2022-12-28T08:36:23.157Z,99046.06
2022-12-28T08:38:49.720Z,99046.11
2022-12-28T08:41:19.327Z,99049.74
2022-12-28T08:43:46.289Z,99045.32
2022-12-28T08:46:16.068Z,99049.62
2022-12-28T08:48:43.784Z,99045.31
2022-12-28T08:51:12.886Z,99041.89
2022-12-28T08:53:40.523Z,99036.90
2022-12-28T08:56:20.112Z,99039.00
2022-12-28T08:58:47.588Z,99038.65
2022-12-28T09:01:16.580Z,99034.84
2022-12-28T09:03:45.479Z,99034.73
2022-12-28T09:06:14.739Z,99032.51
2022-12-28T09:08:42.583Z,99034.79
2022-12-28T09:11:13.760Z,99032.02
2022-12-28T09:13:40.609Z,99024.23
2022-12-28T09:16:13.229Z,99020.62
2022-12-28T09:18:41.290Z,99023.16
2022-12-28T09:21:13.957Z,99018.98
2022-12-28T09:23:41.105Z,99012.11
2022-12-28T09:26:10.609Z,99011.77
2022-12-28T09:28:38.087Z,99008.82
2022-12-28T09:31:06.210Z,99004.98
2022-12-28T09:33:33.211Z,98999.73
2022-12-28T09:35:59.625Z,98994.57
2022-12-28T09:38:26.203Z,98992.39
2022-12-28T09:40:52.744Z,98988.69
2022-12-28T09:43:19.997Z,98982.14
2022-12-28T09:45:47.970Z,98980.50
2022-12-28T09:48:19.019Z,98975.36
2022-12-28T09:50:47.571Z,98968.39
2022-12-28T09:53:23.230Z,98962.09
2022-12-28T09:56:03.009Z,98967.29
2022-12-28T09:58:32.320Z,98965.66
2022-12-28T10:01:02.247Z,98961.27
2022-12-28T10:03:37.961Z,98959.89
2022-12-28T10:06:12.191Z,98955.73
2022-12-28T10:08:51.251Z,98958.44
2022-12-28T10:11:22.554Z,98955.55
2022-12-28T10:13:55.130Z,98952.78
2022-12-28T10:16:25.021Z,98950.61
2022-12-28T10:18:52.137Z,98942.85
2022-12-28T10:21:25.453Z,98936.41
2022-12-28T10:24:29.618Z,98931.67
2022-12-28T10:26:46.494Z,98933.20
2022-12-28T10:29:19.399Z,98927.89
2022-12-28T10:32:00.975Z,98926.39
2022-12-28T10:34:33.498Z,98923.71
2022-12-28T10:37:15.384Z,98920.33
2022-12-28T10:39:58.003Z,98914.78
2022-12-28T10:42:40.999Z,98912.40
2022-12-28T10:45:18.001Z,98914.00
2022-12-28T10:47:50.329Z,98908.94
2022-12-28T10:50:48.154Z,98907.06
2022-12-28T10:53:17.636Z,98901.70
2022-12-28T10:55:44.640Z,98901.20
2022-12-28T10:58:33.281Z,98901.57
2022-12-28T11:01:11.346Z,98897.98
2022-12-28T11:03:43.994Z,98895.00
2022-12-28T11:06:26.700Z,98894.42
2022-12-28T11:09:21.494Z,98884.27
2022-12-28T11:11:49.529Z,98882.57
2022-12-28T11:14:34.102Z,98886.19
2022-12-28T11:17:20.541Z,98881.79
2022-12-28T11:19:49.424Z,98882.95
2022-12-28T11:22:22.603Z,98882.90
2022-12-28T11:24:49.153Z,98879.69
2022-12-28T11:27:19.684Z,98878.39
2022-12-28T11:29:51.192Z,98877.39
2022-12-28T11:32:39.826Z,98870.91
2022-12-28T11:35:06.833Z,98868.81
2022-12-28T11:37:33.272Z,98866.21
2022-12-28T11:39:59.733Z,98863.40
2022-12-28T11:42:40.699Z,98861.09
2022-12-28T11:45:14.952Z,98852.48
2022-12-28T11:47:41.538Z,98850.77
2022-12-28T11:50:32.888Z,98845.56
2022-12-28T11:53:00.435Z,98841.23
2022-12-28T11:55:35.795Z,98837.39
2022-12-28T11:58:33.457Z,98830.66
2022-12-28T12:01:00.268Z,98823.34
2022-12-28T12:03:58.197Z,98812.88
2022-12-28T12:06:43.166Z,98811.52
2022-12-28T12:09:33.061Z,98805.35
2022-12-28T12:12:21.210Z,98803.62
2022-12-28T12:14:51.536Z,98794.12
2022-12-28T12:17:41.190Z,98795.17
2022-12-28T12:20:44.529Z,98788.51
2022-12-28T12:24:05.311Z,98785.75
2022-12-28T12:26:49.182Z,98784.37
2022-12-28T12:29:20.979Z,98788.73
2022-12-28T12:31:57.394Z,98778.23
2022-12-28T12:34:36.460Z,98769.46
2022-12-28T12:37:27.093Z,98761.06
2022-12-28T12:40:21.374Z,98762.05
2022-12-28T12:43:09.698Z,98757.00
2022-12-28T12:45:56.134Z,98749.52
2022-12-28T12:48:41.409Z,98759.21
2022-12-28T12:51:37.008Z,98753.91
2022-12-28T12:54:06.215Z,98751.98
2022-12-28T12:56:52.017Z,98751.42
2022-12-28T12:59:27.258Z,98755.39
2022-12-28T13:02:12.347Z,98749.61
2022-12-28T13:04:43.739Z,98749.05
2022-12-28T13:07:17.897Z,98743.52
2022-12-28T13:09:44.642Z,98738.04
2022-12-28T13:12:17.283Z,98736.39
2022-12-28T13:14:45.800Z,98731.36
2022-12-28T13:17:19.298Z,98725.42
2022-12-28T13:19:45.880Z,98726.83
2022-12-28T13:22:33.184Z,98714.19
2022-12-28T13:25:00.147Z,98713.89
2022-12-28T13:27:34.553Z,98711.40
2022-12-28T13:30:01.929Z,98709.43
2022-12-28T13:32:38.239Z,98700.23
2022-12-28T13:35:21.942Z,98702.52
2022-12-28T13:38:24.005Z,98699.17
2022-12-28T13:40:53.434Z,98695.06
2022-12-28T13:43:25.699Z,98697.74
2022-12-28T13:45:57.613Z,98697.20
2022-12-28T13:48:25.738Z,98693.73
2022-12-28T13:50:53.277Z,98688.75
2022-12-28T13:53:27.860Z,98678.02
2022-12-28T13:56:00.753Z,98679.39
2022-12-28T13:58:29.726Z,98677.48
2022-12-28T14:00:58.971Z,98675.51
2022-12-28T14:03:26.468Z,98681.66
2022-12-28T14:05:57.778Z,98681.73
2022-12-28T14:08:24.151Z,98680.20
2022-12-28T14:10:51.718Z,98680.73
2022-12-28T14:13:19.735Z,98678.79
2022-12-28T14:15:47.528Z,98681.33
2022-12-28T14:18:17.215Z,98677.00
2022-12-28T14:20:54.101Z,98671.59
2022-12-28T14:23:26.434Z,98668.09
2022-12-28T14:25:55.356Z,98669.75
2022-12-28T14:28:31.512Z,98666.04
2022-12-28T14:30:58.227Z,98667.84
2022-12-28T14:33:27.786Z,98664.92
2022-12-28T14:35:59.270Z,98663.58
2022-12-28T14:38:34.369Z,98659.98
2022-12-28T14:41:02.464Z,98657.38
2022-12-28T14:43:32.451Z,98652.68
2022-12-28T14:46:18.016Z,98654.94
2022-12-28T14:48:44.935Z,98653.04
2022-12-28T14:51:24.359Z,98648.06
2022-12-28T14:54:15.971Z,98643.96
2022-12-28T14:56:46.163Z,98631.98
2022-12-28T14:59:22.288Z,98629.32
2022-12-28T15:01:48.958Z,98626.79
2022-12-28T15:04:28.287Z,98625.22
2022-12-28T15:06:54.873Z,98636.77
2022-12-28T15:09:21.874Z,98641.65
2022-12-28T15:11:48.432Z,98641.66
2022-12-28T15:14:15.131Z,98648.08
2022-12-28T15:16:41.577Z,98645.59
2022-12-28T15:19:08.259Z,98644.77
2022-12-28T15:21:34.890Z,98647.80
2022-12-28T15:24:01.397Z,98652.36
2022-12-28T15:26:27.888Z,98649.05
2022-12-28T15:28:54.374Z,98653.98
2022-12-28T15:31:21.915Z,98649.08
2022-12-28T15:33:49.411Z,98656.21
2022-12-28T15:36:22.287Z,98657.48
2022-12-28T15:38:49.146Z,98662.40
2022-12-28T15:41:16.653Z,98665.45
2022-12-28T15:43:43.255Z,98669.52
2022-12-28T15:46:09.729Z,98660.20
2022-12-28T15:48:36.324Z,98657.90
2022-12-28T15:51:02.809Z,98660.73
2022-12-28T15:53:29.208Z,98660.98
2022-12-28T15:56:01.797Z,98670.74
2022-12-28T15:58:29.451Z,98673.77
2022-12-28T16:00:55.928Z,98670.59
2022-12-28T16:03:22.746Z,98668.15
2022-12-28T16:05:49.251Z,98665.48
2022-12-28T16:08:15.679Z,98663.99
2022-12-28T16:10:42.156Z,98654.54
2022-12-28T16:13:08.703Z,98655.57
2022-12-28T16:15:35.234Z,98658.51
2022-12-28T16:18:01.772Z,98657.11
2022-12-28T16:20:29.666Z,98663.08
2022-12-28T16:22:56.039Z,98667.16
2022-12-28T16:25:22.460Z,98667.14
2022-12-28T16:27:48.932Z,98666.08
2022-12-28T16:30:15.615Z,98673.02
2022-12-28T16:32:42.145Z,98669.22
2022-12-28T16:35:09.032Z,98662.20
2022-12-28T16:37:35.540Z,98665.46
2022-12-28T16:40:02.074Z,98671.49
2022-12-28T16:42:28.611Z,98666.72
2022-12-28T16:44:55.138Z,98667.71
2022-12-28T16:47:21.679Z,98668.64
2022-12-28T16:49:48.215Z,98669.41
2022-12-28T16:52:14.645Z,98671.36
2022-12-28T16:54:41.079Z,98666.76
2022-12-28T16:57:07.537Z,98663.34
2022-12-28T16:59:34.016Z,98663.48
2022-12-28T17:02:00.553Z,98660.73
2022-12-28T17:04:27.137Z,98658.65
2022-12-28T17:06:54.210Z,98651.45
2022-12-28T17:09:21.269Z,98652.67
2022-12-28T17:11:49.768Z,98646.98
2022-12-28T17:14:29.201Z,98644.27
2022-12-28T17:17:02.898Z,98638.77
2022-12-28T17:19:29.440Z,98636.48
2022-12-28T17:21:55.884Z,98640.50
2022-12-28T17:24:22.398Z,98639.42
2022-12-28T17:26:48.817Z,98631.98
2022-12-28T17:29:15.381Z,98634.21
2022-12-28T17:31:43.727Z,98636.34
2022-12-28T17:34:11.020Z,98631.05
2022-12-28T17:36:37.507Z,98629.74
2022-12-28T17:39:04.608Z,98626.55
2022-12-28T17:41:31.358Z,98627.13
2022-12-28T17:43:59.845Z,98624.95
2022-12-28T17:46:29.009Z,98625.27
2022-12-28T17:48:57.464Z,98622.11
2022-12-28T17:51:24.695Z,98621.89
2022-12-28T17:53:53.399Z,98615.36
2022-12-28T17:56:20.036Z,98618.23
2022-12-28T17:58:46.439Z,98615.45
2022-12-28T18:01:13.430Z,98620.40
2022-12-28T18:03:40.188Z,98614.24
2022-12-28T18:06:07.500Z,98617.81
2022-12-28T18:08:34.443Z,98622.05
2022-12-28T18:11:00.970Z,98620.27
2022-12-28T18:13:27.597Z,98618.82
2022-12-28T18:15:54.189Z,98614.95
2022-12-28T18:18:20.708Z,98614.17
2022-12-28T18:20:59.819Z,98612.23
2022-12-28T18:23:26.883Z,98607.05
2022-12-28T18:26:00.413Z,98600.14
2022-12-28T18:28:26.854Z,98599.02
2022-12-28T18:30:57.886Z,98602.31
2022-12-28T18:33:28.320Z,98599.67
2022-12-28T18:35:54.859Z,98606.10
2022-12-28T18:38:21.405Z,98597.10
2022-12-28T18:40:53.064Z,98603.58
2022-12-28T18:43:21.070Z,98602.40
2022-12-28T18:45:58.587Z,98599.48
2022-12-28T18:48:26.709Z,98601.66
2022-12-28T18:51:23.559Z,98600.86
2022-12-28T18:53:50.036Z,98598.17
2022-12-28T18:56:19.323Z,98597.88
2022-12-28T18:58:54.027Z,98593.83
2022-12-28T19:02:04.638Z,98592.89
2022-12-28T19:04:10.693Z,98593.52
2022-12-28T19:06:38.047Z,98598.90
2022-12-28T19:09:06.153Z,98599.16
2022-12-28T19:11:33.328Z,98601.08
2022-12-28T19:14:03.216Z,98595.94
2022-12-28T19:16:31.796Z,98594.23
2022-12-28T19:18:59.363Z,98596.64
2022-12-28T19:21:30.204Z,98591.05
2022-12-28T19:23:59.366Z,98586.27
2022-12-28T19:26:26.083Z,98580.98
2022-12-28T19:28:53.177Z,98577.55
2022-12-28T19:31:19.899Z,98580.77
2022-12-28T19:33:46.882Z,98575.83
2022-12-28T19:36:13.423Z,98581.65
2022-12-28T19:38:40.063Z,98587.61
2022-12-28T19:41:09.283Z,98588.15
2022-12-28T19:43:36.244Z,98585.60
2022-12-28T19:46:13.596Z,98589.56
2022-12-28T19:48:40.466Z,98585.35
2022-12-28T19:51:07.419Z,98584.72
2022-12-28T19:53:34.049Z,98592.45
2022-12-28T19:56:13.802Z,98590.94
2022-12-28T19:58:43.841Z,98589.25
2022-12-28T20:01:16.654Z,98585.52
2022-12-28T20:03:44.140Z,98579.02
2022-12-28T20:06:19.341Z,98580.71
2022-12-28T20:08:50.683Z,98579.18
2022-12-28T20:11:18.780Z,98580.55
2022-12-28T20:13:50.815Z,98578.55
2022-12-28T20:16:17.286Z,98580.15
2022-12-28T20:18:52.204Z,98579.33
2022-12-28T20:21:20.749Z,98579.04
2022-12-28T20:23:52.200Z,98589.15
2022-12-28T20:26:24.189Z,98593.48
2022-12-28T20:28:50.849Z,98590.30
2022-12-28T20:31:19.984Z,98586.42
2022-12-28T20:33:47.222Z,98580.31
2022-12-28T20:36:19.341Z,98577.97
2022-12-28T20:38:47.033Z,98582.59
2022-12-28T20:41:16.553Z,98579.70
2022-12-28T20:43:43.185Z,98582.09
2022-12-28T20:46:12.750Z,98575.80
2022-12-28T20:48:39.237Z,98575.10
2022-12-28T20:51:05.782Z,98578.00
2022-12-28T20:53:32.310Z,98578.34
2022-12-28T20:56:09.804Z,98581.74
2022-12-28T20:58:37.619Z,98577.82
2022-12-28T21:01:05.807Z,98576.29
2022-12-28T21:03:32.647Z,98579.03
2022-12-28T21:05:59.340Z,98573.26
2022-12-28T21:08:30.697Z,98572.25
2022-12-28T21:10:58.015Z,98574.13
2022-12-28T21:13:24.554Z,98572.92
2022-12-28T21:15:51.129Z,98576.15
2022-12-28T21:18:17.563Z,98578.01
2022-12-28T21:20:45.747Z,98581.76
2022-12-28T21:23:12.274Z,98581.59
2022-12-28T21:25:38.789Z,98584.70
2022-12-28T21:28:05.930Z,98576.52
2022-12-28T21:30:32.482Z,98569.39
2022-12-28T21:32:59.146Z,98562.41
2022-12-28T21:35:30.447Z,98563.96
2022-12-28T21:38:00.245Z,98568.58
2022-12-28T21:40:26.779Z,98571.98
2022-12-28T21:42:53.183Z,98570.82
2022-12-28T21:45:19.625Z,98567.75
2022-12-28T21:47:46.169Z,98564.88
2022-12-28T21:50:12.589Z,98560.45
2022-12-28T21:52:39.024Z,98558.25
2022-12-28T21:55:05.961Z,98545.31
2022-12-28T21:57:32.362Z,98536.12
2022-12-28T22:00:00.276Z,98533.57
2022-12-28T22:02:28.632Z,98530.84
2022-12-28T22:05:01.801Z,98527.27
2022-12-28T22:07:28.933Z,98529.14
2022-12-28T22:09:57.747Z,98528.48
2022-12-28T22:12:25.909Z,98525.42
2022-12-28T22:14:52.371Z,98525.45
2022-12-28T22:17:18.885Z,98521.72
2022-12-28T22:19:45.325Z,98522.73
2022-12-28T22:22:11.765Z,98521.88
2022-12-28T22:24:38.210Z,98520.02
2022-12-28T22:27:04.638Z,98523.40
2022-12-28T22:29:31.175Z,98520.85
2022-12-28T22:31:57.603Z,98522.05
2022-12-28T22:34:24.028Z,98514.90
2022-12-28T22:36:50.602Z,98508.11
2022-12-28T22:39:17.132Z,98505.05
2022-12-28T22:41:43.505Z,98492.46
2022-12-28T22:44:10.411Z,98486.67
2022-12-28T22:46:36.913Z,98483.10
2022-12-28T22:49:03.499Z,98485.98
2022-12-28T22:51:29.944Z,98487.69
2022-12-28T22:53:56.441Z,98487.70
2022-12-28T22:56:22.864Z,98481.77
2022-12-28T22:58:49.326Z,98477.38
2022-12-28T23:01:19.103Z,98476.54
2022-12-28T23:03:47.869Z,98472.65
2022-12-28T23:06:17.505Z,98467.55
2022-12-28T23:08:44.299Z,98453.11
2022-12-28T23:11:13.818Z,98445.80
2022-12-28T23:13:40.353Z,98436.12
2022-12-28T23:16:06.909Z,98435.27
2022-12-28T23:18:35.036Z,98435.41
2022-12-28T23:21:01.618Z,98436.77
2022-12-28T23:23:28.047Z,98441.35
2022-12-28T23:25:54.500Z,98441.19
2022-12-28T23:28:21.035Z,98436.76
2022-12-28T23:30:49.899Z,98436.09
2022-12-28T23:33:18.003Z,98437.29
2022-12-28T23:35:45.360Z,98436.45
2022-12-28T23:38:12.121Z,98432.89
2022-12-28T23:40:40.281Z,98433.91
2022-12-28T23:43:07.352Z,98438.33
2022-12-28T23:45:35.010Z,98446.14
2022-12-28T23:48:01.521Z,98443.92
2022-12-28T23:50:28.107Z,98438.98
2022-12-28T23:52:54.521Z,98437.64
2022-12-28T23:55:20.936Z,98438.81
2022-12-28T23:57:47.397Z,98444.26
